sensor_id;sensor_type;location;lat;lon;timestamp;P1;durP1;ratioP1;P2;durP2;ratioP2
7375;SDS011;3728;42.266;24.944;2022-08-19T00:02:13;4.60;;;4.20;;
7375;SDS011;3728;42.266;24.944;2022-08-19T00:04:40;4.90;;;4.38;;
7375;SDS011;3728;42.266;24.944;2022-08-19T00:07:07;4.85;;;4.35;;
7375;SDS011;3728;42.266;24.944;2022-08-19T00:09:35;10.80;;;4.35;;
7375;SDS011;3728;42.266;24.944;2022-08-19T00:12:02;4.57;;;4.18;;
7375;SDS011;3728;42.266;24.944;2022-08-19T00:14:30;5.70;;;4.53;;
7375;SDS011;3728;42.266;24.944;2022-08-19T00:16:58;4.85;;;4.45;;
7375;SDS011;3728;42.266;24.944;2022-08-19T00:19:27;4.95;;;4.53;;
7375;SDS011;3728;42.266;24.944;2022-08-19T00:21:55;5.22;;;4.30;;
7375;SDS011;3728;42.266;24.944;2022-08-19T00:24:22;6.15;;;4.57;;
7375;SDS011;3728;42.266;24.944;2022-08-19T00:26:50;4.45;;;3.92;;
7375;SDS011;3728;42.266;24.944;2022-08-19T00:29:19;5.78;;;4.50;;
7375;SDS011;3728;42.266;24.944;2022-08-19T00:31:47;4.72;;;4.20;;
7375;SDS011;3728;42.266;24.944;2022-08-19T00:34:16;7.07;;;5.10;;
7375;SDS011;3728;42.266;24.944;2022-08-19T00:36:44;10.88;;;6.72;;
7375;SDS011;3728;42.266;24.944;2022-08-19T00:39:12;7.25;;;5.57;;
7375;SDS011;3728;42.266;24.944;2022-08-19T00:41:40;9.85;;;5.47;;
7375;SDS011;3728;42.266;24.944;2022-08-19T00:44:10;7.47;;;5.15;;
7375;SDS011;3728;42.266;24.944;2022-08-19T00:46:41;6.30;;;5.30;;
7375;SDS011;3728;42.266;24.944;2022-08-19T00:49:22;12.55;;;5.32;;
7375;SDS011;3728;42.266;24.944;2022-08-19T00:51:57;5.80;;;5.20;;
7375;SDS011;3728;42.266;24.944;2022-08-19T00:54:31;5.50;;;4.22;;
7375;SDS011;3728;42.266;24.944;2022-08-19T00:56:59;8.50;;;4.82;;
7375;SDS011;3728;42.266;24.944;2022-08-19T00:59:29;5.43;;;4.53;;
7375;SDS011;3728;42.266;24.944;2022-08-19T01:02:19;5.10;;;4.60;;
7375;SDS011;3728;42.266;24.944;2022-08-19T01:04:46;6.93;;;4.38;;
7375;SDS011;3728;42.266;24.944;2022-08-19T01:07:14;6.55;;;4.75;;
7375;SDS011;3728;42.266;24.944;2022-08-19T01:09:45;5.30;;;4.90;;
7375;SDS011;3728;42.266;24.944;2022-08-19T01:12:13;5.85;;;4.78;;
7375;SDS011;3728;42.266;24.944;2022-08-19T01:14:40;6.70;;;4.60;;
7375;SDS011;3728;42.266;24.944;2022-08-19T01:17:09;6.10;;;5.05;;
7375;SDS011;3728;42.266;24.944;2022-08-19T01:19:39;5.53;;;5.03;;
7375;SDS011;3728;42.266;24.944;2022-08-19T01:22:19;6.80;;;4.80;;
7375;SDS011;3728;42.266;24.944;2022-08-19T01:24:56;6.55;;;4.82;;
7375;SDS011;3728;42.266;24.944;2022-08-19T01:27:24;6.03;;;4.78;;
7375;SDS011;3728;42.266;24.944;2022-08-19T01:30:09;5.43;;;4.90;;
7375;SDS011;3728;42.266;24.944;2022-08-19T01:32:40;5.18;;;4.65;;
7375;SDS011;3728;42.266;24.944;2022-08-19T01:35:07;5.22;;;4.70;;
7375;SDS011;3728;42.266;24.944;2022-08-19T01:37:44;6.90;;;4.28;;
7375;SDS011;3728;42.266;24.944;2022-08-19T01:40:14;5.28;;;4.50;;
7375;SDS011;3728;42.266;24.944;2022-08-19T01:42:46;8.30;;;4.65;;
7375;SDS011;3728;42.266;24.944;2022-08-19T01:45:15;4.80;;;4.30;;
7375;SDS011;3728;42.266;24.944;2022-08-19T01:47:43;4.43;;;4.03;;
7375;SDS011;3728;42.266;24.944;2022-08-19T01:50:27;4.68;;;4.28;;
7375;SDS011;3728;42.266;24.944;2022-08-19T01:52:58;6.32;;;4.68;;
7375;SDS011;3728;42.266;24.944;2022-08-19T01:55:32;7.38;;;4.72;;
7375;SDS011;3728;42.266;24.944;2022-08-19T01:58:07;5.13;;;4.72;;
7375;SDS011;3728;42.266;24.944;2022-08-19T02:00:41;6.32;;;4.88;;
7375;SDS011;3728;42.266;24.944;2022-08-19T02:03:13;5.25;;;4.72;;
7375;SDS011;3728;42.266;24.944;2022-08-19T02:05:40;5.72;;;4.88;;
7375;SDS011;3728;42.266;24.944;2022-08-19T02:08:09;5.55;;;4.97;;
7375;SDS011;3728;42.266;24.944;2022-08-19T02:10:38;5.57;;;5.03;;
7375;SDS011;3728;42.266;24.944;2022-08-19T02:13:09;6.22;;;5.40;;
7375;SDS011;3728;42.266;24.944;2022-08-19T02:15:37;6.50;;;5.50;;
7375;SDS011;3728;42.266;24.944;2022-08-19T02:18:05;7.60;;;5.50;;
7375;SDS011;3728;42.266;24.944;2022-08-19T02:20:34;8.32;;;5.35;;
7375;SDS011;3728;42.266;24.944;2022-08-19T02:23:03;5.45;;;5.00;;
7375;SDS011;3728;42.266;24.944;2022-08-19T02:25:39;8.88;;;5.78;;
7375;SDS011;3728;42.266;24.944;2022-08-19T02:28:06;10.75;;;5.95;;
7375;SDS011;3728;42.266;24.944;2022-08-19T02:30:34;11.93;;;6.28;;
7375;SDS011;3728;42.266;24.944;2022-08-19T02:33:01;20.90;;;6.43;;
7375;SDS011;3728;42.266;24.944;2022-08-19T02:35:29;53.30;;;11.38;;
7375;SDS011;3728;42.266;24.944;2022-08-19T02:37:56;49.25;;;11.63;;
7375;SDS011;3728;42.266;24.944;2022-08-19T02:40:47;39.67;;;9.52;;
7375;SDS011;3728;42.266;24.944;2022-08-19T02:43:18;29.85;;;8.85;;
7375;SDS011;3728;42.266;24.944;2022-08-19T02:45:47;29.33;;;8.63;;
7375;SDS011;3728;42.266;24.944;2022-08-19T02:48:16;16.27;;;7.65;;
7375;SDS011;3728;42.266;24.944;2022-08-19T02:50:48;15.38;;;7.10;;
7375;SDS011;3728;42.266;24.944;2022-08-19T02:53:23;13.05;;;7.20;;
7375;SDS011;3728;42.266;24.944;2022-08-19T02:55:53;10.32;;;6.55;;
7375;SDS011;3728;42.266;24.944;2022-08-19T02:58:21;11.70;;;7.05;;
7375;SDS011;3728;42.266;24.944;2022-08-19T03:00:54;11.68;;;7.32;;
7375;SDS011;3728;42.266;24.944;2022-08-19T03:03:25;8.48;;;5.78;;
7375;SDS011;3728;42.266;24.944;2022-08-19T03:06:07;9.50;;;6.03;;
7375;SDS011;3728;42.266;24.944;2022-08-19T03:08:40;9.75;;;6.25;;
7375;SDS011;3728;42.266;24.944;2022-08-19T03:11:22;8.48;;;6.18;;
7375;SDS011;3728;42.266;24.944;2022-08-19T03:13:57;10.02;;;6.32;;
7375;SDS011;3728;42.266;24.944;2022-08-19T03:16:27;9.95;;;6.63;;
7375;SDS011;3728;42.266;24.944;2022-08-19T03:18:59;13.45;;;7.55;;
7375;SDS011;3728;42.266;24.944;2022-08-19T03:21:29;12.00;;;7.15;;
7375;SDS011;3728;42.266;24.944;2022-08-19T03:24:02;14.23;;;8.10;;
7375;SDS011;3728;42.266;24.944;2022-08-19T03:26:38;11.15;;;7.75;;
7375;SDS011;3728;42.266;24.944;2022-08-19T03:29:06;12.00;;;7.60;;
7375;SDS011;3728;42.266;24.944;2022-08-19T03:31:39;16.05;;;9.15;;
7375;SDS011;3728;42.266;24.944;2022-08-19T03:34:19;16.70;;;9.20;;
7375;SDS011;3728;42.266;24.944;2022-08-19T03:36:56;58.88;;;14.07;;
7375;SDS011;3728;42.266;24.944;2022-08-19T03:39:25;15.75;;;9.85;;
7375;SDS011;3728;42.266;24.944;2022-08-19T03:41:54;18.73;;;8.63;;
7375;SDS011;3728;42.266;24.944;2022-08-19T03:44:48;18.00;;;7.90;;
7375;SDS011;3728;42.266;24.944;2022-08-19T03:47:15;14.90;;;8.30;;
7375;SDS011;3728;42.266;24.944;2022-08-19T03:49:43;15.07;;;7.43;;
7375;SDS011;3728;42.266;24.944;2022-08-19T03:52:11;20.35;;;7.80;;
7375;SDS011;3728;42.266;24.944;2022-08-19T03:54:38;15.40;;;8.43;;
7375;SDS011;3728;42.266;24.944;2022-08-19T03:57:06;14.07;;;7.43;;
7375;SDS011;3728;42.266;24.944;2022-08-19T03:59:36;14.10;;;7.45;;
7375;SDS011;3728;42.266;24.944;2022-08-19T04:02:06;13.63;;;7.53;;
7375;SDS011;3728;42.266;24.944;2022-08-19T04:04:37;15.13;;;7.47;;
7375;SDS011;3728;42.266;24.944;2022-08-19T04:07:06;12.90;;;7.80;;
7375;SDS011;3728;42.266;24.944;2022-08-19T04:09:35;17.58;;;7.70;;
7375;SDS011;3728;42.266;24.944;2022-08-19T04:12:04;14.02;;;7.68;;
7375;SDS011;3728;42.266;24.944;2022-08-19T04:14:32;18.20;;;8.13;;
7375;SDS011;3728;42.266;24.944;2022-08-19T04:17:01;16.20;;;8.30;;
7375;SDS011;3728;42.266;24.944;2022-08-19T04:19:32;16.80;;;8.77;;
7375;SDS011;3728;42.266;24.944;2022-08-19T04:22:01;16.40;;;8.43;;
7375;SDS011;3728;42.266;24.944;2022-08-19T04:24:30;18.08;;;8.32;;
7375;SDS011;3728;42.266;24.944;2022-08-19T04:26:59;15.55;;;9.20;;
7375;SDS011;3728;42.266;24.944;2022-08-19T04:29:29;17.38;;;9.20;;
7375;SDS011;3728;42.266;24.944;2022-08-19T04:31:57;19.67;;;9.25;;
7375;SDS011;3728;42.266;24.944;2022-08-19T04:34:34;17.05;;;7.82;;
7375;SDS011;3728;42.266;24.944;2022-08-19T04:37:22;18.65;;;8.32;;
7375;SDS011;3728;42.266;24.944;2022-08-19T04:39:59;19.48;;;8.60;;
7375;SDS011;3728;42.266;24.944;2022-08-19T04:42:45;14.27;;;7.72;;
7375;SDS011;3728;42.266;24.944;2022-08-19T04:45:16;13.05;;;7.45;;
7375;SDS011;3728;42.266;24.944;2022-08-19T04:47:43;13.45;;;7.28;;
7375;SDS011;3728;42.266;24.944;2022-08-19T04:50:23;17.15;;;7.78;;
7375;SDS011;3728;42.266;24.944;2022-08-19T04:52:52;13.50;;;7.53;;
7375;SDS011;3728;42.266;24.944;2022-08-19T04:55:22;12.75;;;8.15;;
7375;SDS011;3728;42.266;24.944;2022-08-19T04:57:52;10.20;;;7.22;;
7375;SDS011;3728;42.266;24.944;2022-08-19T05:00:20;13.20;;;7.75;;
7375;SDS011;3728;42.266;24.944;2022-08-19T05:02:47;11.25;;;7.63;;
7375;SDS011;3728;42.266;24.944;2022-08-19T05:05:15;14.38;;;7.43;;
7375;SDS011;3728;42.266;24.944;2022-08-19T05:07:43;17.58;;;7.68;;
7375;SDS011;3728;42.266;24.944;2022-08-19T05:10:10;20.00;;;7.75;;
7375;SDS011;3728;42.266;24.944;2022-08-19T05:12:39;14.65;;;8.00;;
7375;SDS011;3728;42.266;24.944;2022-08-19T05:15:26;20.52;;;7.85;;
7375;SDS011;3728;42.266;24.944;2022-08-19T05:17:53;21.38;;;8.02;;
7375;SDS011;3728;42.266;24.944;2022-08-19T05:20:39;15.38;;;7.72;;
7375;SDS011;3728;42.266;24.944;2022-08-19T05:23:25;14.77;;;7.45;;
7375;SDS011;3728;42.266;24.944;2022-08-19T05:25:52;9.95;;;6.63;;
7375;SDS011;3728;42.266;24.944;2022-08-19T05:28:20;9.80;;;6.10;;
7375;SDS011;3728;42.266;24.944;2022-08-19T05:30:47;11.23;;;6.00;;
7375;SDS011;3728;42.266;24.944;2022-08-19T05:33:17;7.90;;;6.35;;
7375;SDS011;3728;42.266;24.944;2022-08-19T05:35:45;6.38;;;5.50;;
7375;SDS011;3728;42.266;24.944;2022-08-19T05:38:15;7.72;;;5.95;;
7375;SDS011;3728;42.266;24.944;2022-08-19T05:40:44;13.05;;;6.13;;
7375;SDS011;3728;42.266;24.944;2022-08-19T05:43:13;12.32;;;6.32;;
7375;SDS011;3728;42.266;24.944;2022-08-19T05:45:42;20.65;;;7.20;;
7375;SDS011;3728;42.266;24.944;2022-08-19T05:48:10;8.27;;;6.20;;
7375;SDS011;3728;42.266;24.944;2022-08-19T05:50:39;10.43;;;6.72;;
7375;SDS011;3728;42.266;24.944;2022-08-19T05:53:08;8.10;;;5.88;;
7375;SDS011;3728;42.266;24.944;2022-08-19T05:55:35;11.32;;;5.75;;
7375;SDS011;3728;42.266;24.944;2022-08-19T05:58:04;6.05;;;5.43;;
7375;SDS011;3728;42.266;24.944;2022-08-19T06:00:34;14.82;;;6.13;;
7375;SDS011;3728;42.266;24.944;2022-08-19T06:03:02;9.50;;;6.05;;
7375;SDS011;3728;42.266;24.944;2022-08-19T06:05:41;7.50;;;6.03;;
7375;SDS011;3728;42.266;24.944;2022-08-19T06:08:17;13.57;;;6.93;;
7375;SDS011;3728;42.266;24.944;2022-08-19T06:10:45;10.98;;;6.13;;
7375;SDS011;3728;42.266;24.944;2022-08-19T06:13:12;8.90;;;5.68;;
7375;SDS011;3728;42.266;24.944;2022-08-19T06:15:43;12.35;;;7.30;;
7375;SDS011;3728;42.266;24.944;2022-08-19T06:18:10;11.57;;;6.88;;
7375;SDS011;3728;42.266;24.944;2022-08-19T06:20:38;13.35;;;6.75;;
7375;SDS011;3728;42.266;24.944;2022-08-19T06:23:21;9.90;;;6.85;;
7375;SDS011;3728;42.266;24.944;2022-08-19T06:25:49;10.85;;;6.68;;
7375;SDS011;3728;42.266;24.944;2022-08-19T06:28:17;8.32;;;5.97;;
7375;SDS011;3728;42.266;24.944;2022-08-19T06:30:44;9.93;;;6.03;;
7375;SDS011;3728;42.266;24.944;2022-08-19T06:33:12;7.78;;;5.38;;
7375;SDS011;3728;42.266;24.944;2022-08-19T06:35:39;14.00;;;6.25;;
7375;SDS011;3728;42.266;24.944;2022-08-19T06:38:07;7.28;;;5.85;;
7375;SDS011;3728;42.266;24.944;2022-08-19T06:40:35;7.20;;;5.65;;
7375;SDS011;3728;42.266;24.944;2022-08-19T06:43:04;5.57;;;5.15;;
7375;SDS011;3728;42.266;24.944;2022-08-19T06:45:36;9.82;;;5.40;;
7375;SDS011;3728;42.266;24.944;2022-08-19T06:48:05;5.35;;;4.85;;
7375;SDS011;3728;42.266;24.944;2022-08-19T06:50:33;7.78;;;5.15;;
7375;SDS011;3728;42.266;24.944;2022-08-19T06:53:07;5.07;;;4.57;;
7375;SDS011;3728;42.266;24.944;2022-08-19T06:55:35;5.63;;;4.47;;
7375;SDS011;3728;42.266;24.944;2022-08-19T06:58:04;6.20;;;4.15;;
7375;SDS011;3728;42.266;24.944;2022-08-19T07:00:32;7.82;;;4.55;;
7375;SDS011;3728;42.266;24.944;2022-08-19T07:03:00;8.38;;;4.45;;
7375;SDS011;3728;42.266;24.944;2022-08-19T07:05:37;14.13;;;5.10;;
7375;SDS011;3728;42.266;24.944;2022-08-19T07:08:11;17.88;;;6.00;;
7375;SDS011;3728;42.266;24.944;2022-08-19T07:10:41;19.88;;;5.30;;
7375;SDS011;3728;42.266;24.944;2022-08-19T07:13:11;11.63;;;5.32;;
7375;SDS011;3728;42.266;24.944;2022-08-19T07:15:40;10.20;;;5.38;;
7375;SDS011;3728;42.266;24.944;2022-08-19T07:18:08;9.85;;;4.90;;
7375;SDS011;3728;42.266;24.944;2022-08-19T07:20:38;7.53;;;4.78;;
7375;SDS011;3728;42.266;24.944;2022-08-19T07:23:08;10.77;;;4.72;;
7375;SDS011;3728;42.266;24.944;2022-08-19T07:25:42;14.70;;;5.28;;
7375;SDS011;3728;42.266;24.944;2022-08-19T07:28:09;4.97;;;4.50;;
7375;SDS011;3728;42.266;24.944;2022-08-19T07:30:49;5.50;;;3.95;;
7375;SDS011;3728;42.266;24.944;2022-08-19T07:33:18;6.60;;;4.13;;
7375;SDS011;3728;42.266;24.944;2022-08-19T07:35:47;12.65;;;4.80;;
7375;SDS011;3728;42.266;24.944;2022-08-19T07:38:16;5.10;;;3.92;;
7375;SDS011;3728;42.266;24.944;2022-08-19T07:40:44;21.23;;;5.85;;
7375;SDS011;3728;42.266;24.944;2022-08-19T07:43:12;8.25;;;4.53;;
7375;SDS011;3728;42.266;24.944;2022-08-19T07:45:43;6.65;;;4.43;;
7375;SDS011;3728;42.266;24.944;2022-08-19T07:48:10;7.40;;;4.70;;
7375;SDS011;3728;42.266;24.944;2022-08-19T07:50:38;8.20;;;4.53;;
7375;SDS011;3728;42.266;24.944;2022-08-19T07:53:06;7.53;;;4.40;;
7375;SDS011;3728;42.266;24.944;2022-08-19T07:55:33;5.97;;;4.60;;
7375;SDS011;3728;42.266;24.944;2022-08-19T07:58:09;8.45;;;4.70;;
7375;SDS011;3728;42.266;24.944;2022-08-19T08:00:38;8.98;;;4.55;;
7375;SDS011;3728;42.266;24.944;2022-08-19T08:03:05;7.93;;;4.30;;
7375;SDS011;3728;42.266;24.944;2022-08-19T08:05:34;5.32;;;4.20;;
7375;SDS011;3728;42.266;24.944;2022-08-19T08:08:21;13.60;;;5.25;;
7375;SDS011;3728;42.266;24.944;2022-08-19T08:11:13;12.43;;;4.60;;
7375;SDS011;3728;42.266;24.944;2022-08-19T08:13:42;12.02;;;4.65;;
7375;SDS011;3728;42.266;24.944;2022-08-19T08:16:10;8.07;;;3.88;;
7375;SDS011;3728;42.266;24.944;2022-08-19T08:18:40;10.82;;;4.28;;
7375;SDS011;3728;42.266;24.944;2022-08-19T08:21:18;34.65;;;7.78;;
7375;SDS011;3728;42.266;24.944;2022-08-19T08:23:45;6.18;;;4.10;;
7375;SDS011;3728;42.266;24.944;2022-08-19T08:26:14;8.77;;;4.15;;
7375;SDS011;3728;42.266;24.944;2022-08-19T08:28:44;6.70;;;4.07;;
7375;SDS011;3728;42.266;24.944;2022-08-19T08:31:15;11.50;;;4.53;;
7375;SDS011;3728;42.266;24.944;2022-08-19T08:33:42;10.45;;;4.30;;
7375;SDS011;3728;42.266;24.944;2022-08-19T08:36:10;6.20;;;4.68;;
7375;SDS011;3728;42.266;24.944;2022-08-19T08:38:40;21.58;;;5.65;;
7375;SDS011;3728;42.266;24.944;2022-08-19T08:41:32;5.10;;;4.22;;
7375;SDS011;3728;42.266;24.944;2022-08-19T08:44:32;40.08;;;7.80;;
7375;SDS011;3728;42.266;24.944;2022-08-19T08:47:13;10.90;;;4.80;;
7375;SDS011;3728;42.266;24.944;2022-08-19T08:52:24;6.72;;;4.25;;
7375;SDS011;3728;42.266;24.944;2022-08-19T08:54:59;8.18;;;4.32;;
7375;SDS011;3728;42.266;24.944;2022-08-19T08:57:39;7.38;;;4.47;;
7375;SDS011;3728;42.266;24.944;2022-08-19T09:00:19;14.38;;;5.05;;
7375;SDS011;3728;42.266;24.944;2022-08-19T09:03:10;7.90;;;5.10;;
7375;SDS011;3728;42.266;24.944;2022-08-19T09:05:55;6.63;;;4.72;;
7375;SDS011;3728;42.266;24.944;2022-08-19T09:11:11;7.47;;;4.70;;
7375;SDS011;3728;42.266;24.944;2022-08-19T09:17:06;10.32;;;4.38;;
7375;SDS011;3728;42.266;24.944;2022-08-19T09:19:36;11.88;;;4.97;;
7375;SDS011;3728;42.266;24.944;2022-08-19T09:22:22;7.63;;;4.43;;
7375;SDS011;3728;42.266;24.944;2022-08-19T09:24:51;8.13;;;4.30;;
7375;SDS011;3728;42.266;24.944;2022-08-19T09:27:19;8.05;;;4.65;;
7375;SDS011;3728;42.266;24.944;2022-08-19T09:30:19;6.00;;;4.45;;
7375;SDS011;3728;42.266;24.944;2022-08-19T09:32:51;4.93;;;3.78;;
7375;SDS011;3728;42.266;24.944;2022-08-19T09:35:23;7.35;;;4.53;;
7375;SDS011;3728;42.266;24.944;2022-08-19T09:37:55;8.60;;;4.47;;
7375;SDS011;3728;42.266;24.944;2022-08-19T09:40:27;6.55;;;4.55;;
7375;SDS011;3728;42.266;24.944;2022-08-19T09:42:59;11.20;;;4.75;;
7375;SDS011;3728;42.266;24.944;2022-08-19T09:45:38;5.78;;;4.50;;
7375;SDS011;3728;42.266;24.944;2022-08-19T09:48:08;6.38;;;4.18;;
7375;SDS011;3728;42.266;24.944;2022-08-19T09:50:37;4.25;;;3.92;;
7375;SDS011;3728;42.266;24.944;2022-08-19T09:53:17;5.80;;;4.03;;
7375;SDS011;3728;42.266;24.944;2022-08-19T09:55:51;4.70;;;3.72;;
7375;SDS011;3728;42.266;24.944;2022-08-19T09:58:18;4.13;;;3.80;;
7375;SDS011;3728;42.266;24.944;2022-08-19T10:00:51;5.70;;;4.00;;
7375;SDS011;3728;42.266;24.944;2022-08-19T10:03:20;5.20;;;3.78;;
7375;SDS011;3728;42.266;24.944;2022-08-19T10:05:56;4.40;;;4.00;;
7375;SDS011;3728;42.266;24.944;2022-08-19T10:08:26;4.35;;;3.60;;
7375;SDS011;3728;42.266;24.944;2022-08-19T10:10:56;8.60;;;3.90;;
7375;SDS011;3728;42.266;24.944;2022-08-19T10:13:28;6.85;;;4.28;;
7375;SDS011;3728;42.266;24.944;2022-08-19T10:16:01;4.00;;;3.60;;
7375;SDS011;3728;42.266;24.944;2022-08-19T10:18:34;6.85;;;3.75;;
7375;SDS011;3728;42.266;24.944;2022-08-19T10:21:13;7.53;;;4.07;;
7375;SDS011;3728;42.266;24.944;2022-08-19T10:23:44;5.47;;;3.42;;
7375;SDS011;3728;42.266;24.944;2022-08-19T10:26:14;61.17;;;8.27;;
7375;SDS011;3728;42.266;24.944;2022-08-19T10:28:47;7.35;;;3.85;;
7375;SDS011;3728;42.266;24.944;2022-08-19T10:31:17;6.35;;;4.20;;
7375;SDS011;3728;42.266;24.944;2022-08-19T10:34:09;8.20;;;4.03;;
7375;SDS011;3728;42.266;24.944;2022-08-19T10:36:52;6.65;;;4.07;;
7375;SDS011;3728;42.266;24.944;2022-08-19T10:39:22;4.65;;;3.33;;
7375;SDS011;3728;42.266;24.944;2022-08-19T10:41:55;10.65;;;4.30;;
7375;SDS011;3728;42.266;24.944;2022-08-19T10:44:23;5.68;;;4.03;;
7375;SDS011;3728;42.266;24.944;2022-08-19T10:46:58;9.65;;;4.07;;
7375;SDS011;3728;42.266;24.944;2022-08-19T10:49:26;3.85;;;3.53;;
7375;SDS011;3728;42.266;24.944;2022-08-19T10:52:01;6.07;;;3.55;;
7375;SDS011;3728;42.266;24.944;2022-08-19T10:54:57;5.20;;;3.80;;
7375;SDS011;3728;42.266;24.944;2022-08-19T10:57:44;6.22;;;4.10;;
7375;SDS011;3728;42.266;24.944;2022-08-19T11:00:28;4.18;;;3.75;;
7375;SDS011;3728;42.266;24.944;2022-08-19T11:02:57;5.47;;;3.60;;
7375;SDS011;3728;42.266;24.944;2022-08-19T11:05:24;4.05;;;3.75;;
7375;SDS011;3728;42.266;24.944;2022-08-19T11:07:52;4.10;;;3.70;;
7375;SDS011;3728;42.266;24.944;2022-08-19T11:10:19;5.03;;;3.70;;
7375;SDS011;3728;42.266;24.944;2022-08-19T11:12:48;8.00;;;3.70;;
7375;SDS011;3728;42.266;24.944;2022-08-19T11:15:21;14.27;;;3.97;;
7375;SDS011;3728;42.266;24.944;2022-08-19T11:17:51;3.53;;;3.08;;
7375;SDS011;3728;42.266;24.944;2022-08-19T11:20:21;4.50;;;3.80;;
7375;SDS011;3728;42.266;24.944;2022-08-19T11:22:51;4.20;;;3.78;;
7375;SDS011;3728;42.266;24.944;2022-08-19T11:25:23;4.13;;;3.33;;
7375;SDS011;3728;42.266;24.944;2022-08-19T11:27:50;6.15;;;4.25;;
7375;SDS011;3728;42.266;24.944;2022-08-19T11:30:18;3.95;;;3.55;;
7375;SDS011;3728;42.266;24.944;2022-08-19T11:32:47;4.13;;;3.75;;
7375;SDS011;3728;42.266;24.944;2022-08-19T11:35:16;4.07;;;3.70;;
7375;SDS011;3728;42.266;24.944;2022-08-19T11:37:47;5.55;;;3.80;;
7375;SDS011;3728;42.266;24.944;2022-08-19T11:40:14;4.63;;;3.80;;
7375;SDS011;3728;42.266;24.944;2022-08-19T11:42:42;4.55;;;3.42;;
7375;SDS011;3728;42.266;24.944;2022-08-19T11:45:23;4.65;;;3.60;;
7375;SDS011;3728;42.266;24.944;2022-08-19T11:47:51;7.28;;;3.38;;
7375;SDS011;3728;42.266;24.944;2022-08-19T11:50:19;3.33;;;3.03;;
7375;SDS011;3728;42.266;24.944;2022-08-19T11:52:47;3.72;;;3.42;;
7375;SDS011;3728;42.266;24.944;2022-08-19T11:55:16;5.25;;;3.45;;
7375;SDS011;3728;42.266;24.944;2022-08-19T11:57:43;5.60;;;3.78;;
7375;SDS011;3728;42.266;24.944;2022-08-19T12:00:11;6.32;;;3.47;;
7375;SDS011;3728;42.266;24.944;2022-08-19T12:02:39;3.80;;;3.38;;
7375;SDS011;3728;42.266;24.944;2022-08-19T12:05:07;7.25;;;3.63;;
7375;SDS011;3728;42.266;24.944;2022-08-19T12:07:38;5.05;;;3.50;;
7375;SDS011;3728;42.266;24.944;2022-08-19T12:10:09;3.70;;;3.40;;
7375;SDS011;3728;42.266;24.944;2022-08-19T12:12:37;6.00;;;3.58;;
7375;SDS011;3728;42.266;24.944;2022-08-19T12:15:09;6.43;;;3.42;;
7375;SDS011;3728;42.266;24.944;2022-08-19T12:17:38;6.22;;;3.47;;
7375;SDS011;3728;42.266;24.944;2022-08-19T12:20:07;4.00;;;3.63;;
7375;SDS011;3728;42.266;24.944;2022-08-19T12:22:37;4.88;;;3.53;;
7375;SDS011;3728;42.266;24.944;2022-08-19T12:25:05;4.38;;;3.13;;
7375;SDS011;3728;42.266;24.944;2022-08-19T12:27:34;9.30;;;3.70;;
7375;SDS011;3728;42.266;24.944;2022-08-19T12:30:08;5.63;;;3.45;;
7375;SDS011;3728;42.266;24.944;2022-08-19T12:32:38;4.03;;;3.72;;
7375;SDS011;3728;42.266;24.944;2022-08-19T12:35:06;5.45;;;3.33;;
7375;SDS011;3728;42.266;24.944;2022-08-19T12:37:35;5.07;;;3.40;;
7375;SDS011;3728;42.266;24.944;2022-08-19T12:40:03;5.93;;;3.40;;
7375;SDS011;3728;42.266;24.944;2022-08-19T12:42:31;5.05;;;3.63;;
7375;SDS011;3728;42.266;24.944;2022-08-19T12:44:58;3.60;;;3.30;;
7375;SDS011;3728;42.266;24.944;2022-08-19T12:47:27;6.78;;;3.33;;
7375;SDS011;3728;42.266;24.944;2022-08-19T12:49:56;5.82;;;3.20;;
7375;SDS011;3728;42.266;24.944;2022-08-19T12:52:24;5.18;;;3.45;;
7375;SDS011;3728;42.266;24.944;2022-08-19T12:54:54;4.10;;;3.33;;
7375;SDS011;3728;42.266;24.944;2022-08-19T12:57:26;3.50;;;3.05;;
7375;SDS011;3728;42.266;24.944;2022-08-19T13:02:34;3.58;;;3.28;;
7375;SDS011;3728;42.266;24.944;2022-08-19T13:05:05;4.03;;;3.53;;
7375;SDS011;3728;42.266;24.944;2022-08-19T13:07:35;3.63;;;3.28;;
7375;SDS011;3728;42.266;24.944;2022-08-19T13:10:08;3.50;;;3.20;;
7375;SDS011;3728;42.266;24.944;2022-08-19T13:12:38;5.85;;;3.33;;
7375;SDS011;3728;42.266;24.944;2022-08-19T13:15:09;3.50;;;3.20;;
7375;SDS011;3728;42.266;24.944;2022-08-19T13:17:38;4.45;;;3.38;;
7375;SDS011;3728;42.266;24.944;2022-08-19T13:20:10;5.68;;;3.33;;
7375;SDS011;3728;42.266;24.944;2022-08-19T13:22:41;3.97;;;3.13;;
7375;SDS011;3728;42.266;24.944;2022-08-19T13:25:12;5.85;;;3.10;;
7375;SDS011;3728;42.266;24.944;2022-08-19T13:27:40;3.45;;;3.25;;
7375;SDS011;3728;42.266;24.944;2022-08-19T13:30:08;6.93;;;3.50;;
7375;SDS011;3728;42.266;24.944;2022-08-19T13:32:56;4.15;;;3.28;;
7375;SDS011;3728;42.266;24.944;2022-08-19T13:38:09;4.20;;;3.42;;
7375;SDS011;3728;42.266;24.944;2022-08-19T13:40:39;4.13;;;3.30;;
7375;SDS011;3728;42.266;24.944;2022-08-19T13:43:09;6.40;;;3.70;;
7375;SDS011;3728;42.266;24.944;2022-08-19T13:45:48;12.27;;;4.25;;
7375;SDS011;3728;42.266;24.944;2022-08-19T13:48:23;8.05;;;3.58;;
7375;SDS011;3728;42.266;24.944;2022-08-19T13:50:53;4.57;;;3.47;;
7375;SDS011;3728;42.266;24.944;2022-08-19T13:53:22;6.95;;;3.28;;
7375;SDS011;3728;42.266;24.944;2022-08-19T13:55:50;5.43;;;3.40;;
7375;SDS011;3728;42.266;24.944;2022-08-19T13:58:18;5.55;;;3.53;;
7375;SDS011;3728;42.266;24.944;2022-08-19T14:00:46;3.63;;;3.33;;
7375;SDS011;3728;42.266;24.944;2022-08-19T14:03:14;7.65;;;3.60;;
7375;SDS011;3728;42.266;24.944;2022-08-19T14:05:43;4.95;;;3.80;;
7375;SDS011;3728;42.266;24.944;2022-08-19T14:08:12;4.68;;;3.28;;
7375;SDS011;3728;42.266;24.944;2022-08-19T14:10:40;4.05;;;3.58;;
7375;SDS011;3728;42.266;24.944;2022-08-19T14:13:13;3.38;;;3.03;;
7375;SDS011;3728;42.266;24.944;2022-08-19T14:15:46;4.45;;;3.50;;
7375;SDS011;3728;42.266;24.944;2022-08-19T14:18:15;4.95;;;3.10;;
7375;SDS011;3728;42.266;24.944;2022-08-19T14:20:45;4.78;;;2.90;;
7375;SDS011;3728;42.266;24.944;2022-08-19T14:23:13;4.70;;;2.90;;
7375;SDS011;3728;42.266;24.944;2022-08-19T14:25:40;5.85;;;3.22;;
7375;SDS011;3728;42.266;24.944;2022-08-19T14:28:08;4.93;;;3.55;;
7375;SDS011;3728;42.266;24.944;2022-08-19T14:30:36;3.67;;;3.38;;
7375;SDS011;3728;42.266;24.944;2022-08-19T14:33:05;7.15;;;3.80;;
7375;SDS011;3728;42.266;24.944;2022-08-19T14:35:33;3.97;;;3.33;;
7375;SDS011;3728;42.266;24.944;2022-08-19T14:38:05;7.40;;;3.60;;
7375;SDS011;3728;42.266;24.944;2022-08-19T14:40:33;5.18;;;3.40;;
7375;SDS011;3728;42.266;24.944;2022-08-19T14:43:01;5.45;;;3.38;;
7375;SDS011;3728;42.266;24.944;2022-08-19T14:45:33;18.67;;;17.05;;
7375;SDS011;3728;42.266;24.944;2022-08-19T14:48:04;7.28;;;5.35;;
7375;SDS011;3728;42.266;24.944;2022-08-19T14:50:46;8.32;;;7.60;;
7375;SDS011;3728;42.266;24.944;2022-08-19T14:53:15;6.57;;;3.78;;
7375;SDS011;3728;42.266;24.944;2022-08-19T14:55:43;4.93;;;3.05;;
7375;SDS011;3728;42.266;24.944;2022-08-19T14:58:12;3.53;;;3.22;;
7375;SDS011;3728;42.266;24.944;2022-08-19T15:00:57;19.05;;;4.05;;
7375;SDS011;3728;42.266;24.944;2022-08-19T15:03:26;5.45;;;3.05;;
7375;SDS011;3728;42.266;24.944;2022-08-19T15:05:54;4.45;;;3.17;;
7375;SDS011;3728;42.266;24.944;2022-08-19T15:08:22;4.68;;;3.50;;
7375;SDS011;3728;42.266;24.944;2022-08-19T15:10:52;3.50;;;3.22;;
7375;SDS011;3728;42.266;24.944;2022-08-19T15:13:20;5.05;;;3.40;;
7375;SDS011;3728;42.266;24.944;2022-08-19T15:15:47;3.50;;;3.20;;
7375;SDS011;3728;42.266;24.944;2022-08-19T15:18:15;4.00;;;3.63;;
7375;SDS011;3728;42.266;24.944;2022-08-19T15:20:42;7.15;;;4.03;;
7375;SDS011;3728;42.266;24.944;2022-08-19T15:23:12;4.05;;;3.65;;
7375;SDS011;3728;42.266;24.944;2022-08-19T15:25:43;3.97;;;3.33;;
7375;SDS011;3728;42.266;24.944;2022-08-19T15:28:11;4.40;;;3.60;;
7375;SDS011;3728;42.266;24.944;2022-08-19T15:30:43;8.43;;;3.80;;
7375;SDS011;3728;42.266;24.944;2022-08-19T15:33:11;10.23;;;3.88;;
7375;SDS011;3728;42.266;24.944;2022-08-19T15:35:43;3.92;;;3.53;;
7375;SDS011;3728;42.266;24.944;2022-08-19T15:38:11;6.78;;;3.70;;